• Join FlightAware (Why Join?)
  • Login
  • US Flag 
05:59AM EDT


 

Airport Tracker/Info


-or-


 

Live Flight TrackerFlight Track Log ✈ ZK-PBG ✈ 21-Apr-2013 ✈ NSFA / APW - YSSY / SYD

Flight Track Log - Related Links

Times and Time Zones

All times are in EDT time to prevent confusion due to time zone crossing. See the ZK-PBG flight status page for this flight to view local times or setup timezone preferences in your user account.

Time Position Orientation Groundspeed Altitude Reporting Facility
EDT Latitude Longitude Course Direction KTS MPH feet Rate Location/Type
06:26PM -31.9657 156.1373 228° Southwest 388 447 38,000  Level Aus ATC (RADAR)
06:26PM -32.0284 156.0559 228° Southwest 396 456 38,000  Level Aus ATC (RADAR)
06:27PM -32.0887 155.9751 229° Southwest 395 455 38,000  Level Aus ATC (RADAR)
06:28PM -32.1312 155.9183 229° Southwest 395 455 38,000  Level Aus ATC (RADAR)
06:29PM -32.1963 155.8291 229° Southwest 393 452 38,000  Level Aus ATC (RADAR)
06:30PM -32.2489 155.7563 229° Southwest 391 450 38,000  Level Aus ATC (RADAR)
06:30PM -32.2610 155.7410 229° Southwest 397 457 38,000  Level FlightAware
06:30PM -32.3010 155.6880 228° Southwest 399 459 38,000  Level FlightAware
06:31PM -32.3599 155.6082 228° Southwest 396 456 38,000  Level Aus ATC (RADAR)
06:31PM -32.3610 155.6060 228° Southwest 399 459 38,000  Level FlightAware
06:32PM -32.4050 155.5480 228° Southwest 400 460 38,000  Level FlightAware
06:32PM -32.4395 155.5016 228° Southwest 400 460 38,000  Level Aus ATC (RADAR)
06:33PM -32.4590 155.4730 228° Southwest 399 459 38,000  Level FlightAware
06:33PM -32.5070 155.4080 229° Southwest 397 457 38,000  Level FlightAware
06:33PM -32.5407 155.3613 229° Southwest 394 453 38,000  Level Aus ATC (RADAR)
06:34PM -32.5589 155.3367 229° Southwest 394 453 38,000  Level Aus ATC (RADAR)
06:34PM -32.5590 155.3370 229° Southwest 397 457 38,000  Level FlightAware
06:34PM -32.6008 155.2797 229° Southwest 392 451 38,000  Level Aus ATC (RADAR)
06:35PM -32.6160 155.2580 229° Southwest 395 455 38,000  Level FlightAware
06:35PM -32.6580 155.2020 229° Southwest 396 456 38,000  Level FlightAware
06:35PM -32.6658 155.1895 229° Southwest 392 451 38,000  Level Aus ATC (RADAR)
06:36PM -32.7087 155.1317 229° Southwest 398 458 38,000  Level Aus ATC (RADAR)
06:36PM -32.7190 155.1180 229° Southwest 399 459 38,000  Level FlightAware
06:37PM -32.7470 155.0790 230° Southwest 399 459 38,000  Level FlightAware
06:37PM -32.7904 155.0155 230° Southwest 397 457 38,000  Level Aus ATC (RADAR)
06:37PM -32.8088 154.9917 227° Southwest 398 458 38,000  Level Aus ATC (RADAR)
06:38PM -32.8310 154.9640 227° Southwest 402 463 38,000  Level FlightAware
06:38PM -32.8740 154.8930 234° Southwest 399 459 38,000  Level FlightAware
06:39PM -32.9054 154.8308 234° Southwest 402 463 38,000  Level Aus ATC (RADAR)
06:39PM -32.9210 154.8034 236° Southwest 399 459 38,000  Level Aus ATC (RADAR)
06:39PM -32.9200 154.8070 236° Southwest 400 460 38,000  Level FlightAware
06:39PM -32.9512 154.7475 236° Southwest 401 461 38,000  Level Aus ATC (RADAR)
06:40PM -32.9620 154.7290 236° Southwest 400 460 38,000  Level FlightAware
06:40PM -33.0054 154.6463 236° Southwest 395 455 38,000  Level Aus ATC (RADAR)
06:40PM -33.0030 154.6520 236° Southwest 393 452 38,000 120 Level FlightAware
06:41PM -33.0389 154.5822 236° Southwest 390 449 38,100  Climbing Aus ATC (RADAR)
06:41PM -33.0400 154.5800 236° Southwest 394 453 38,000 -120 Descending FlightAware
06:42PM -33.0860 154.4960 237° Southwest 396 456 38,000 60 Level FlightAware
06:42PM -33.1119 154.4446 237° Southwest 392 451 38,100  Climbing Aus ATC (RADAR)
06:43PM -33.1280 154.4160 237° Southwest 397 457 38,000  Descending FlightAware
06:43PM -33.1471 154.3798 237° Southwest 398 458 38,100  Climbing Aus ATC (RADAR)
06:43PM -33.1820 154.3140 237° Southwest 397 457 38,000  Descending FlightAware
06:44PM -33.2002 154.2782 237° Southwest 394 453 38,100  Climbing Aus ATC (RADAR)
06:44PM -33.2230 154.2360 237° Southwest 397 457 38,000  Descending FlightAware
06:44PM -33.2442 154.1947 237° Southwest 394 453 38,100  Climbing Aus ATC (RADAR)
06:45PM -33.2540 154.1770 237° Southwest 396 456 38,000  Descending FlightAware
06:45PM -33.2971 154.0932 237° Southwest 392 451 38,100  Climbing Aus ATC (RADAR)
06:46PM -33.3040 154.0830 237° Southwest 396 456 38,000  Descending FlightAware
06:46PM -33.3335 154.0253 237° Southwest 382 440 38,100  Climbing Aus ATC (RADAR)
06:46PM -33.3370 154.0190 237° Southwest 394 453 38,000 -120 Descending FlightAware
06:47PM -33.3830 153.9300 238° Southwest 394 453 38,000 60 Level FlightAware
06:47PM -33.4131 153.8723 238° Southwest 390 449 38,100  Climbing Aus ATC (RADAR)
06:48PM -33.4290 153.8440 238° Southwest 394 453 38,000 -120 Descending FlightAware
06:48PM -33.4650 153.7740 238° Southwest 394 453 38,000 60 Level FlightAware
06:49PM -33.4971 153.7114 238° Southwest 380 437 38,100  Climbing Aus ATC (RADAR)
06:49PM -33.5050 153.6960 238° Southwest 395 455 38,000  Descending FlightAware
06:50PM -33.5404 153.6275 238° Southwest 383 441 38,100  Climbing Aus ATC (RADAR)
06:50PM -33.5470 153.6150 238° Southwest 393 452 38,000  Descending FlightAware
06:51PM -33.5978 153.5167 238° Southwest 382 440 38,100  Climbing Aus ATC (RADAR)
06:51PM -33.6010 153.5100 238° Southwest 393 452 38,000  Descending FlightAware
06:51PM -33.6407 153.4340 238° Southwest 379 436 38,100  Climbing Aus ATC (RADAR)
06:51PM -33.6370 153.4410 238° Southwest 392 451 38,000 -180 Descending FlightAware
06:52PM -33.6800 153.3570 238° Southwest 390 449 38,000 60 Level FlightAware
06:53PM -33.7091 153.2989 238° Southwest 389 448 38,100  Climbing Aus ATC (RADAR)
06:53PM -33.7180 153.2830 238° Southwest 389 448 38,000  Descending FlightAware
06:53PM -33.7400 153.2405 238° Southwest 377 434 38,100  Climbing Aus ATC (RADAR)
06:53PM -33.7590 153.2040 238° Southwest 386 444 38,000 -660 Descending FlightAware
06:54PM -33.7935 153.1350 238° Southwest 383 441 37,500 -900 Descending Aus ATC (RADAR)
06:54PM -33.7910 153.1400 238° Southwest 377 434 37,500 -3,120 Level FlightAware
06:55PM -33.8366 153.0503 238° Southwest 378 435 35,100 -3,000 Descending Aus ATC (RADAR)
06:55PM -33.8410 153.0420 238° Southwest 384 442 34,800 -2,640 Descending FlightAware
06:56PM -33.8760 152.9730 239° Southwest 385 443 33,000 -2,640 Descending FlightAware
06:56PM -33.9100 152.9060 239° Southwest 374 430 31,500 -2,580 Descending FlightAware
06:56PM -33.9176 152.8914 239° Southwest 378 435 31,300 -2,040 Descending Aus ATC (RADAR)
06:57PM -33.9530 152.8200 239° Southwest 359 413 29,800 -2,040 Descending FlightAware
06:57PM -33.9740 152.7799 239° Southwest 359 413 29,100 -1,980 Descending Aus ATC (RADAR)
06:58PM -33.9860 152.7570 239° Southwest 347 399 28,500 -1,920 Descending FlightAware
06:58PM -34.0128 152.7030 239° Southwest 338 389 27,600 -2,100 Descending Aus ATC (RADAR)
06:58PM -34.0200 152.6890 239° Southwest 341 392 27,100 -3,120 Descending FlightAware
06:59PM -34.0588 152.6115 239° Southwest 348 400 24,800 -3,120 Descending Aus ATC (RADAR)
06:59PM -34.0570 152.6150 239° Southwest 350 403 24,800 -2,100 Level FlightAware
07:00PM -34.0750 152.5710 244° Southwest 347 399 23,800 -1,920 Descending FlightAware
07:00PM -34.0800 152.5235 244° Southwest 353 406 23,400 -1,380 Descending Aus ATC (RADAR)
07:00PM -34.0750 152.4880 244° Southwest 333 383 22,800 -1,140 Descending FlightAware
07:01PM -34.0690 152.4230 244° Southwest 316 364 22,300 -1,020 Descending FlightAware
07:01PM -34.0672 152.4121 244° Southwest 313 360 22,200 -1,860 Descending Aus ATC (RADAR)
07:01PM -34.0622 152.3521 244° Southwest 303 349 21,200 -1,740 Descending Aus ATC (RADAR)
07:02PM -34.0600 152.3330 244° Southwest 307 353 20,800 -1,560 Descending FlightAware
07:02PM -34.0540 152.2700 277° West 323 372 19,800 -1,680 Descending FlightAware
07:03PM -34.0494 152.2203 277° West 316 364 19,100 -1,800 Descending Aus ATC (RADAR)
07:03PM -34.0470 152.1960 277° West 322 371 18,600 -1,920 Descending FlightAware
07:04PM -34.0390 152.1120 277° West 329 379 17,100 -1,980 Descending FlightAware
07:04PM -34.0333 152.0580 277° West 320 368 16,300 -1,680 Descending Aus ATC (RADAR)
07:04PM -34.0330 152.0460 277° West 325 374 16,000 -2,280 Descending FlightAware
07:05PM -34.0250 151.9763 277° West 324 373 14,600 -2,400 Descending Aus ATC (RADAR)
07:05PM -34.0260 151.9780 277° West 330 380 14,600 -2,280 Level FlightAware
07:06PM -34.0160 151.8860 277° West 336 387 12,600 -2,220 Descending FlightAware
07:07PM -34.0078 151.8015 277° West 326 375 11,200 -2,040 Descending Aus ATC (RADAR)
07:07PM -34.0080 151.8020 277° West 331 381 11,100 -1,560 Descending FlightAware
07:07PM -34.0010 151.7340 277° West 320 368 10,100 -1,560 Descending FlightAware
07:08PM -33.9953 151.6772 277° West 310 357 9,400 -1,620 Descending Aus ATC (RADAR)
07:08PM -33.9950 151.6760 277° West 313 360 9,300 -1,740 Descending FlightAware
07:08PM -33.9940 151.6640 276° West 312 359 9,000 -1,980 Descending FlightAware
07:08PM -33.9889 151.6170 276° West 306 352 8,300 -1,920 Descending Aus ATC (RADAR)
07:08PM -33.9890 151.6160 276° West 312 359 8,200 -960 Descending FlightAware
07:09PM -33.9830 151.5560 277° West 310 357 7,700 -780 Descending FlightAware
07:09PM -33.9788 151.5182 277° West 301 346 7,500 -720 Descending Aus ATC (RADAR)
07:09PM -33.9790 151.5180 277° West 293 337 7,400 -780 Descending FlightAware
07:10PM -33.9770 151.4990 277° West 284 327 7,300 -1,080 Descending FlightAware
07:10PM -33.9708 151.4458 277° West 272 313 6,700 -1,200 Descending Aus ATC (RADAR)
07:10PM -33.9700 151.4320 277° West 270 311 6,400 -1,200 Descending FlightAware
07:11PM -33.9660 151.4000 279° West 266 306 6,000 -480 Descending FlightAware
07:11PM -33.9603 151.3429 279° West 257 296 6,000 -180 Level Aus ATC (RADAR)
07:11PM -33.9610 151.3490 279° West 264 304 5,900 -240 Descending FlightAware
07:12PM -33.9500 151.3090 288° West 267 307 5,900  Level FlightAware
07:12PM -33.9350 151.2960 324° Northwest 268 308 5,900 -180 Level FlightAware
07:12PM -33.9020 151.2850 345° North 268 308 5,800 -840 Descending FlightAware
07:13PM -33.8667 151.2720 345° North 276 318 5,200 -1,440 Descending Aus ATC (RADAR)
07:13PM -33.8670 151.2720 345° North 267 307 5,100 -1,200 Descending FlightAware
07:13PM -33.8480 151.2650 343° North 272 313 4,800 -1,380 Descending FlightAware
07:14PM -33.8170 151.2540 344° North 270 311 4,200 -1,380 Descending FlightAware
07:14PM -33.8000 151.2480 344° North 268 308 3,900 -1,440 Descending FlightAware
07:14PM -33.7830 151.2400 339° North 259 298 3,500 -1,020 Descending FlightAware
07:14PM -33.7700 151.2250 316° Northwest 255 293 3,400 -420 Descending FlightAware
07:15PM -33.7650 151.2050 287° West 240 276 3,300 -480 Descending FlightAware
07:15PM -33.7700 151.1750 259° West 221 254 3,100 -600 Descending FlightAware
07:15PM -33.7720 151.1670 253° West 216 249 3,000 -1,020 Descending FlightAware
07:15PM -33.7890 151.1490 221° Southwest 200 230 2,600 -900 Descending FlightAware
07:16PM -33.8140 151.1420 193° South 180 207 2,200 -840 Descending FlightAware
07:16PM -33.8300 151.1460 168° South 166 191 1,900 -840 Descending FlightAware
07:17PM -33.8503 151.1512 168° South 157 181 1,600 -840 Descending Aus ATC (RADAR)
07:17PM -33.8520 151.1510 168° South 149 171 1,500 -720 Descending FlightAware
07:18PM -33.8810 151.1590 167° South 129 148 1,000 -660 Descending FlightAware
07:18PM -33.8992 151.1638 167° South 134 154 700 -840 Descending Aus ATC (RADAR)
07:18PM -33.8990 151.1640 167° South 133 153 600 -900 Descending FlightAware
07:18PM -33.9150 151.1680 168° South 133 153 300 -780 Descending FlightAware
07:19PM -33.9250 151.1700 171° South 135 155 100 -840 Descending FlightAware
07:19PM -33.9420 151.1750 166° South 80 92 -240 Descending FlightAware
07:20PM -33.9470 151.1760 171° South 15 17  Level FlightAware
07:20PM -33.9470 151.1740 270° West 16 18  Level FlightAware
07:20PM -33.9460 151.1740 360° North 12 14  Level FlightAware
07:21PM -33.9450 151.1740 360° North 13 15  Level FlightAware
07:21PM -33.9440 151.1730 320° Northwest 14 16  Level FlightAware
07:22PM -33.9420 151.1730 360° North 16 18  Level FlightAware
07:22PM -33.9410 151.1720 320° Northwest 12 14  Level FlightAware
07:22PM -33.9410 151.1700 270° West 6 7  Level FlightAware
07:23PM -33.9410 151.1690 270° West 1 1  Level FlightAware
07:25PM -33.9461 151.1772 127° Southeast  Level Estimated
07:26PM -33.9461 151.1772 121° Southeast  Level Estimated
07:26PM -33.9400 151.1680 121° Southeast 10 12  Level FlightAware
07:27PM -33.9390 151.1680 360° North 7 8  Level FlightAware
07:27PM -33.9390 151.1670 270° West 1 1  Level FlightAware
07:30PM -33.9461 151.1772 130° Southeast  Level Estimated